KRNH

New Richmond Regional Airport

New Richmond, Wisconsin, USA
METAR KRNH 220435Z AUTO 14008G15KT 10SM SCT032 OVC060 M08/M16 A3012 RMK AO2 T10841156
Observed Flight Rules
Jan-22 @ 04:35 UTC (9 minutes ago) Visual Flight Rules
Wind Visibility Clouds
140° at 8 knots
 Gusting to 15 knots
10 miles
  • Scattered at 3,200' AGL
  • Overcast at 6,000' AGL
Temperatures Readings
Current -8°C / 18°F
Dewpoint -16°C / 3°F
Humidity 53%
Altimeter 30.12" Hg
Pressure 1020.02 hPa
Elevation 304
METAR KRNH 220435Z AUTO 14008G15KT 10SM SCT032 OVC060 M08/M16 A3012 RMK AO2 T10841156
Observed Flight Rules
Jan-22 @ 04:35 UTC
(9 minutes ago)
VFR
Wind Visibility
140° at 8 knots
 Gusting to 15 knots
10 miles
Clouds
  • Scattered at 3,200' AGL
  • Overcast at 6,000' AGL
Temperature Dewpoint
-8°C / 18°F -16°C / 3°F
Humidity Altimeter Pressure
53% 30.12" Hg 1020.02 hPa